sensor_id;sensor_type;location;lat;lon;timestamp;pressure;altitude;pressure_sealevel;temperature;humidity
61478;BME280;47345;52.334;10.392;2023-02-10T00:01:16;102613.88;;;2.32;73.64
61478;BME280;47345;52.334;10.392;2023-02-10T00:03:48;102616.02;;;2.30;74.24
61478;BME280;47345;52.334;10.392;2023-02-10T00:06:22;102615.77;;;2.28;74.47
61478;BME280;47345;52.334;10.392;2023-02-10T00:08:56;102618.55;;;2.27;74.94
61478;BME280;47345;52.334;10.392;2023-02-10T00:11:29;102620.23;;;2.26;75.41
61478;BME280;47345;52.334;10.392;2023-02-10T00:14:18;102626.71;;;2.26;75.63
61478;BME280;47345;52.334;10.392;2023-02-10T00:16:52;102628.02;;;2.26;75.94
61478;BME280;47345;52.334;10.392;2023-02-10T00:19:25;102628.96;;;2.27;76.19
61478;BME280;47345;52.334;10.392;2023-02-10T00:21:56;102633.95;;;2.28;76.76
61478;BME280;47345;52.334;10.392;2023-02-10T00:24:28;102630.90;;;2.28;76.88
61478;BME280;47345;52.334;10.392;2023-02-10T00:27:00;102633.60;;;2.28;77.50
61478;BME280;47345;52.334;10.392;2023-02-10T00:29:32;102638.88;;;2.30;77.62
61478;BME280;47345;52.334;10.392;2023-02-10T00:32:05;102644.05;;;2.30;78.10
61478;BME280;47345;52.334;10.392;2023-02-10T00:34:36;102646.30;;;2.32;78.27
61478;BME280;47345;52.334;10.392;2023-02-10T00:37:08;102642.98;;;2.33;78.43
61478;BME280;47345;52.334;10.392;2023-02-10T00:39:41;102647.23;;;2.34;78.34
61478;BME280;47345;52.334;10.392;2023-02-10T00:42:13;102650.91;;;2.35;78.76
61478;BME280;47345;52.334;10.392;2023-02-10T00:44:44;102646.73;;;2.36;78.82
61478;BME280;47345;52.334;10.392;2023-02-10T00:47:18;102647.92;;;2.37;78.98
61478;BME280;47345;52.334;10.392;2023-02-10T00:49:51;102645.42;;;2.37;79.05
61478;BME280;47345;52.334;10.392;2023-02-10T00:52:25;102642.93;;;2.36;79.15
61478;BME280;47345;52.334;10.392;2023-02-10T00:54:57;102647.41;;;2.39;79.24
61478;BME280;47345;52.334;10.392;2023-02-10T00:57:31;102646.13;;;2.40;79.50
61478;BME280;47345;52.334;10.392;2023-02-10T01:00:03;102651.64;;;2.41;79.49
61478;BME280;47345;52.334;10.392;2023-02-10T01:02:35;102649.47;;;2.41;79.38
61478;BME280;47345;52.334;10.392;2023-02-10T01:05:08;102655.46;;;2.41;79.72
61478;BME280;47345;52.334;10.392;2023-02-10T01:07:40;102660.38;;;2.40;79.96
61478;BME280;47345;52.334;10.392;2023-02-10T01:10:12;102660.83;;;2.38;80.17
61478;BME280;47345;52.334;10.392;2023-02-10T01:12:43;102665.56;;;2.37;80.04
61478;BME280;47345;52.334;10.392;2023-02-10T01:15:15;102667.58;;;2.37;80.21
61478;BME280;47345;52.334;10.392;2023-02-10T01:17:47;102667.95;;;2.36;80.53
61478;BME280;47345;52.334;10.392;2023-02-10T01:20:19;102669.86;;;2.35;80.41
61478;BME280;47345;52.334;10.392;2023-02-10T01:22:51;102672.38;;;2.35;80.45
61478;BME280;47345;52.334;10.392;2023-02-10T01:25:23;102676.02;;;2.34;80.86
61478;BME280;47345;52.334;10.392;2023-02-10T01:27:55;102671.03;;;2.33;80.76
61478;BME280;47345;52.334;10.392;2023-02-10T01:30:27;102676.30;;;2.33;80.81
61478;BME280;47345;52.334;10.392;2023-02-10T01:32:58;102675.42;;;2.32;80.96
61478;BME280;47345;52.334;10.392;2023-02-10T01:35:30;102670.08;;;2.32;80.88
61478;BME280;47345;52.334;10.392;2023-02-10T01:38:03;102669.92;;;2.31;81.18
61478;BME280;47345;52.334;10.392;2023-02-10T01:40:35;102672.46;;;2.31;81.40
61478;BME280;47345;52.334;10.392;2023-02-10T01:43:14;102673.98;;;2.30;81.41
61478;BME280;47345;52.334;10.392;2023-02-10T01:45:48;102678.54;;;2.29;81.74
61478;BME280;47345;52.334;10.392;2023-02-10T01:48:19;102678.09;;;2.28;81.61
61478;BME280;47345;52.334;10.392;2023-02-10T01:50:54;102682.89;;;2.26;81.84
61478;BME280;47345;52.334;10.392;2023-02-10T01:53:29;102683.14;;;2.25;81.91
61478;BME280;47345;52.334;10.392;2023-02-10T01:56:05;102680.77;;;2.23;82.04
61478;BME280;47345;52.334;10.392;2023-02-10T01:58:39;102680.14;;;2.21;82.10
61478;BME280;47345;52.334;10.392;2023-02-10T02:01:11;102677.17;;;2.20;82.12
61478;BME280;47345;52.334;10.392;2023-02-10T02:03:42;102677.86;;;2.18;82.48
61478;BME280;47345;52.334;10.392;2023-02-10T02:06:14;102677.86;;;2.18;82.35
61478;BME280;47345;52.334;10.392;2023-02-10T02:08:47;102680.30;;;2.16;82.51
61478;BME280;47345;52.334;10.392;2023-02-10T02:11:25;102681.23;;;2.16;82.85
61478;BME280;47345;52.334;10.392;2023-02-10T02:14:13;102680.75;;;2.15;82.57
61478;BME280;47345;52.334;10.392;2023-02-10T02:16:56;102673.73;;;2.15;82.79
61478;BME280;47345;52.334;10.392;2023-02-10T02:20:06;102675.89;;;2.18;82.74
61478;BME280;47345;52.334;10.392;2023-02-10T02:23:11;102672.96;;;2.21;82.75
61478;BME280;47345;52.334;10.392;2023-02-10T02:32:01;102663.46;;;2.31;82.65
61478;BME280;47345;52.334;10.392;2023-02-10T02:34:40;102656.52;;;2.32;82.48
61478;BME280;47345;52.334;10.392;2023-02-10T02:37:15;102663.77;;;2.34;82.79
61478;BME280;47345;52.334;10.392;2023-02-10T02:39:49;102659.91;;;2.35;82.58
61478;BME280;47345;52.334;10.392;2023-02-10T02:42:24;102656.74;;;2.37;82.88
61478;BME280;47345;52.334;10.392;2023-02-10T02:44:59;102656.45;;;2.39;82.88
61478;BME280;47345;52.334;10.392;2023-02-10T02:47:45;102658.33;;;2.40;82.74
61478;BME280;47345;52.334;10.392;2023-02-10T02:50:25;102658.58;;;2.42;82.93
61478;BME280;47345;52.334;10.392;2023-02-10T02:53:12;102660.10;;;2.43;82.79
61478;BME280;47345;52.334;10.392;2023-02-10T02:55:55;102660.75;;;2.44;82.81
61478;BME280;47345;52.334;10.392;2023-02-10T02:58:41;102662.48;;;2.45;83.10
61478;BME280;47345;52.334;10.392;2023-02-10T03:01:20;102661.33;;;2.47;82.85
61478;BME280;47345;52.334;10.392;2023-02-10T03:03:56;102660.33;;;2.48;82.87
61478;BME280;47345;52.334;10.392;2023-02-10T03:06:28;102660.84;;;2.48;83.03
61478;BME280;47345;52.334;10.392;2023-02-10T03:09:00;102661.17;;;2.49;83.24
61478;BME280;47345;52.334;10.392;2023-02-10T03:11:32;102663.98;;;2.50;83.15
61478;BME280;47345;52.334;10.392;2023-02-10T03:14:04;102660.89;;;2.50;83.36
61478;BME280;47345;52.334;10.392;2023-02-10T03:16:37;102668.50;;;2.52;83.18
61478;BME280;47345;52.334;10.392;2023-02-10T03:19:09;102666.66;;;2.53;83.22
61478;BME280;47345;52.334;10.392;2023-02-10T03:21:41;102668.17;;;2.52;82.99
61478;BME280;47345;52.334;10.392;2023-02-10T03:24:13;102670.30;;;2.52;83.30
61478;BME280;47345;52.334;10.392;2023-02-10T03:26:45;102671.52;;;2.53;82.96
61478;BME280;47345;52.334;10.392;2023-02-10T03:29:17;102670.98;;;2.53;83.21
61478;BME280;47345;52.334;10.392;2023-02-10T03:31:48;102672.20;;;2.54;83.32
61478;BME280;47345;52.334;10.392;2023-02-10T03:34:20;102671.13;;;2.53;83.20
61478;BME280;47345;52.334;10.392;2023-02-10T03:36:53;102672.98;;;2.52;83.10
61478;BME280;47345;52.334;10.392;2023-02-10T03:39:25;102671.78;;;2.51;83.07
61478;BME280;47345;52.334;10.392;2023-02-10T03:41:58;102671.45;;;2.51;83.02
61478;BME280;47345;52.334;10.392;2023-02-10T03:44:31;102668.05;;;2.51;82.88
61478;BME280;47345;52.334;10.392;2023-02-10T03:47:03;102671.61;;;2.51;82.96
61478;BME280;47345;52.334;10.392;2023-02-10T03:49:37;102670.40;;;2.51;82.99
61478;BME280;47345;52.334;10.392;2023-02-10T03:52:09;102667.83;;;2.51;83.03
61478;BME280;47345;52.334;10.392;2023-02-10T03:54:40;102674.08;;;2.52;82.91
61478;BME280;47345;52.334;10.392;2023-02-10T03:57:12;102674.52;;;2.51;83.21
61478;BME280;47345;52.334;10.392;2023-02-10T03:59:43;102677.66;;;2.53;82.95
61478;BME280;47345;52.334;10.392;2023-02-10T04:02:16;102685.95;;;2.53;83.16
61478;BME280;47345;52.334;10.392;2023-02-10T04:04:48;102684.55;;;2.52;83.03
61478;BME280;47345;52.334;10.392;2023-02-10T04:07:20;102690.66;;;2.52;83.09
61478;BME280;47345;52.334;10.392;2023-02-10T04:09:52;102691.95;;;2.55;82.82
61478;BME280;47345;52.334;10.392;2023-02-10T04:12:24;102682.92;;;2.55;82.97
61478;BME280;47345;52.334;10.392;2023-02-10T04:14:55;102683.82;;;2.55;82.99
61478;BME280;47345;52.334;10.392;2023-02-10T04:17:29;102687.48;;;2.54;82.89
61478;BME280;47345;52.334;10.392;2023-02-10T04:20:03;102685.12;;;2.54;82.78
61478;BME280;47345;52.334;10.392;2023-02-10T04:22:34;102686.48;;;2.55;82.86
61478;BME280;47345;52.334;10.392;2023-02-10T04:25:07;102683.73;;;2.56;82.81
61478;BME280;47345;52.334;10.392;2023-02-10T04:27:39;102677.59;;;2.54;82.70
61478;BME280;47345;52.334;10.392;2023-02-10T04:30:13;102683.09;;;2.58;82.86
61478;BME280;47345;52.334;10.392;2023-02-10T04:32:45;102680.56;;;2.58;82.76
61478;BME280;47345;52.334;10.392;2023-02-10T04:35:19;102679.90;;;2.57;82.69
61478;BME280;47345;52.334;10.392;2023-02-10T04:37:51;102677.34;;;2.57;82.71
61478;BME280;47345;52.334;10.392;2023-02-10T04:40:22;102675.44;;;2.56;82.50
61478;BME280;47345;52.334;10.392;2023-02-10T04:42:54;102672.95;;;2.56;82.62
61478;BME280;47345;52.334;10.392;2023-02-10T04:45:26;102670.04;;;2.56;82.52
61478;BME280;47345;52.334;10.392;2023-02-10T04:47:58;102665.07;;;2.55;82.68
61478;BME280;47345;52.334;10.392;2023-02-10T04:50:30;102665.13;;;2.54;82.77
61478;BME280;47345;52.334;10.392;2023-02-10T04:53:01;102665.15;;;2.54;82.73
61478;BME280;47345;52.334;10.392;2023-02-10T04:55:32;102662.13;;;2.53;82.80
61478;BME280;47345;52.334;10.392;2023-02-10T04:58:05;102665.72;;;2.54;82.84
61478;BME280;47345;52.334;10.392;2023-02-10T05:00:37;102671.11;;;2.54;82.84
61478;BME280;47345;52.334;10.392;2023-02-10T05:03:09;102677.30;;;2.53;82.69
61478;BME280;47345;52.334;10.392;2023-02-10T05:05:41;102685.92;;;2.53;82.48
61478;BME280;47345;52.334;10.392;2023-02-10T05:08:15;102685.52;;;2.54;82.86
61478;BME280;47345;52.334;10.392;2023-02-10T05:10:51;102683.70;;;2.54;82.63
61478;BME280;47345;52.334;10.392;2023-02-10T05:13:22;102676.50;;;2.54;82.70
61478;BME280;47345;52.334;10.392;2023-02-10T05:15:53;102671.95;;;2.55;82.62
61478;BME280;47345;52.334;10.392;2023-02-10T05:18:25;102677.15;;;2.55;82.65
61478;BME280;47345;52.334;10.392;2023-02-10T05:20:59;102676.94;;;2.55;82.61
61478;BME280;47345;52.334;10.392;2023-02-10T05:23:33;102675.89;;;2.55;82.60
61478;BME280;47345;52.334;10.392;2023-02-10T05:26:06;102678.98;;;2.54;82.51
61478;BME280;47345;52.334;10.392;2023-02-10T05:28:37;102675.14;;;2.55;82.71
61478;BME280;47345;52.334;10.392;2023-02-10T05:31:09;102676.79;;;2.55;82.72
61478;BME280;47345;52.334;10.392;2023-02-10T05:33:41;102683.29;;;2.55;82.66
61478;BME280;47345;52.334;10.392;2023-02-10T05:36:13;102684.19;;;2.55;82.71
61478;BME280;47345;52.334;10.392;2023-02-10T05:38:46;102690.12;;;2.55;82.73
61478;BME280;47345;52.334;10.392;2023-02-10T05:41:33;102687.57;;;2.55;82.71
61478;BME280;47345;52.334;10.392;2023-02-10T05:44:06;102683.23;;;2.56;82.53
61478;BME280;47345;52.334;10.392;2023-02-10T05:46:39;102691.98;;;2.57;82.95
61478;BME280;47345;52.334;10.392;2023-02-10T05:49:13;102697.88;;;2.57;82.71
61478;BME280;47345;52.334;10.392;2023-02-10T05:51:47;102701.91;;;2.59;82.73
61478;BME280;47345;52.334;10.392;2023-02-10T05:54:21;102703.44;;;2.58;82.69
61478;BME280;47345;52.334;10.392;2023-02-10T05:56:53;102713.52;;;2.60;82.75
61478;BME280;47345;52.334;10.392;2023-02-10T05:59:26;102717.64;;;2.60;82.79
61478;BME280;47345;52.334;10.392;2023-02-10T06:01:58;102717.98;;;2.61;82.74
61478;BME280;47345;52.334;10.392;2023-02-10T06:04:31;102722.83;;;2.61;82.78
61478;BME280;47345;52.334;10.392;2023-02-10T06:07:03;102722.44;;;2.62;82.83
61478;BME280;47345;52.334;10.392;2023-02-10T06:09:35;102719.04;;;2.61;82.55
61478;BME280;47345;52.334;10.392;2023-02-10T06:12:10;102720.25;;;2.62;82.80
61478;BME280;47345;52.334;10.392;2023-02-10T06:14:42;102723.40;;;2.63;82.84
61478;BME280;47345;52.334;10.392;2023-02-10T06:17:14;102723.38;;;2.64;82.83
61478;BME280;47345;52.334;10.392;2023-02-10T06:19:46;102729.84;;;2.64;82.78
61478;BME280;47345;52.334;10.392;2023-02-10T06:22:20;102731.98;;;2.64;82.65
61478;BME280;47345;52.334;10.392;2023-02-10T06:24:51;102737.22;;;2.64;82.69
61478;BME280;47345;52.334;10.392;2023-02-10T06:27:24;102743.72;;;2.64;82.66
61478;BME280;47345;52.334;10.392;2023-02-10T06:29:56;102742.27;;;2.64;82.57
61478;BME280;47345;52.334;10.392;2023-02-10T06:32:29;102751.31;;;2.63;82.58
61478;BME280;47345;52.334;10.392;2023-02-10T06:35:01;102747.52;;;2.63;82.84
61478;BME280;47345;52.334;10.392;2023-02-10T06:37:34;102750.61;;;2.63;82.66
61478;BME280;47345;52.334;10.392;2023-02-10T06:40:08;102754.80;;;2.62;82.73
61478;BME280;47345;52.334;10.392;2023-02-10T06:42:41;102753.96;;;2.61;82.55
61478;BME280;47345;52.334;10.392;2023-02-10T06:45:13;102753.76;;;2.62;82.89
61478;BME280;47345;52.334;10.392;2023-02-10T06:47:45;102755.16;;;2.62;82.85
61478;BME280;47345;52.334;10.392;2023-02-10T06:50:18;102747.73;;;2.63;82.79
61478;BME280;47345;52.334;10.392;2023-02-10T06:52:52;102745.70;;;2.64;82.89
61478;BME280;47345;52.334;10.392;2023-02-10T06:55:25;102754.83;;;2.65;82.85
61478;BME280;47345;52.334;10.392;2023-02-10T06:58:01;102751.21;;;2.65;82.85
61478;BME280;47345;52.334;10.392;2023-02-10T07:00:34;102751.27;;;2.64;82.90
61478;BME280;47345;52.334;10.392;2023-02-10T07:03:07;102758.52;;;2.63;82.89
61478;BME280;47345;52.334;10.392;2023-02-10T07:05:40;102757.60;;;2.64;82.98
61478;BME280;47345;52.334;10.392;2023-02-10T07:08:12;102760.48;;;2.64;83.09
61478;BME280;47345;52.334;10.392;2023-02-10T07:10:44;102766.70;;;2.65;83.21
61478;BME280;47345;52.334;10.392;2023-02-10T07:13:16;102770.73;;;2.66;83.16
61478;BME280;47345;52.334;10.392;2023-02-10T07:15:49;102771.21;;;2.68;83.27
61478;BME280;47345;52.334;10.392;2023-02-10T07:18:22;102768.66;;;2.68;83.13
61478;BME280;47345;52.334;10.392;2023-02-10T07:20:54;102770.73;;;2.69;83.17
61478;BME280;47345;52.334;10.392;2023-02-10T07:23:25;102775.84;;;2.71;83.31
61478;BME280;47345;52.334;10.392;2023-02-10T07:26:06;102776.69;;;2.74;83.26
61478;BME280;47345;52.334;10.392;2023-02-10T07:28:38;102775.95;;;2.77;83.20
61478;BME280;47345;52.334;10.392;2023-02-10T07:31:10;102782.38;;;2.81;83.27
61478;BME280;47345;52.334;10.392;2023-02-10T07:33:42;102788.89;;;2.86;83.12
61478;BME280;47345;52.334;10.392;2023-02-10T07:36:13;102781.43;;;2.89;83.08
61478;BME280;47345;52.334;10.392;2023-02-10T07:38:45;102783.19;;;2.93;83.05
61478;BME280;47345;52.334;10.392;2023-02-10T07:41:17;102784.65;;;2.95;82.95
61478;BME280;47345;52.334;10.392;2023-02-10T07:43:49;102785.31;;;2.99;82.83
61478;BME280;47345;52.334;10.392;2023-02-10T07:46:22;102785.11;;;3.02;82.85
61478;BME280;47345;52.334;10.392;2023-02-10T07:48:54;102785.49;;;3.04;82.87
61478;BME280;47345;52.334;10.392;2023-02-10T07:51:26;102783.38;;;3.06;82.68
61478;BME280;47345;52.334;10.392;2023-02-10T07:53:57;102786.34;;;3.07;82.72
61478;BME280;47345;52.334;10.392;2023-02-10T07:56:29;102788.42;;;3.08;82.76
61478;BME280;47345;52.334;10.392;2023-02-10T07:59:00;102794.21;;;3.11;82.73
61478;BME280;47345;52.334;10.392;2023-02-10T08:01:36;102795.56;;;3.12;82.66
61478;BME280;47345;52.334;10.392;2023-02-10T08:04:13;102797.64;;;3.13;82.64
61478;BME280;47345;52.334;10.392;2023-02-10T08:06:44;102798.10;;;3.15;82.84
61478;BME280;47345;52.334;10.392;2023-02-10T08:09:16;102796.34;;;3.16;82.68
61478;BME280;47345;52.334;10.392;2023-02-10T08:11:48;102801.21;;;3.19;82.79
61478;BME280;47345;52.334;10.392;2023-02-10T08:14:20;102804.27;;;3.21;82.79
61478;BME280;47345;52.334;10.392;2023-02-10T08:16:53;102804.79;;;3.24;82.75
61478;BME280;47345;52.334;10.392;2023-02-10T08:19:25;102810.88;;;3.28;82.87
61478;BME280;47345;52.334;10.392;2023-02-10T08:21:57;102815.46;;;3.32;82.79
61478;BME280;47345;52.334;10.392;2023-02-10T08:24:31;102819.90;;;3.35;82.80
61478;BME280;47345;52.334;10.392;2023-02-10T08:27:05;102821.36;;;3.38;82.68
61478;BME280;47345;52.334;10.392;2023-02-10T08:29:37;102823.21;;;3.39;82.75
61478;BME280;47345;52.334;10.392;2023-02-10T08:32:09;102827.34;;;3.43;82.78
61478;BME280;47345;52.334;10.392;2023-02-10T08:34:41;102826.45;;;3.45;82.87
61478;BME280;47345;52.334;10.392;2023-02-10T08:37:13;102824.44;;;3.48;82.71
61478;BME280;47345;52.334;10.392;2023-02-10T08:39:44;102826.67;;;3.49;82.66
61478;BME280;47345;52.334;10.392;2023-02-10T08:42:16;102829.80;;;3.51;82.88
61478;BME280;47345;52.334;10.392;2023-02-10T08:44:47;102828.59;;;3.53;82.82
61478;BME280;47345;52.334;10.392;2023-02-10T08:47:18;102833.84;;;3.55;82.76
61478;BME280;47345;52.334;10.392;2023-02-10T08:49:50;102834.03;;;3.58;82.88
61478;BME280;47345;52.334;10.392;2023-02-10T08:52:22;102831.38;;;3.59;82.68
61478;BME280;47345;52.334;10.392;2023-02-10T08:54:53;102829.07;;;3.62;82.69
61478;BME280;47345;52.334;10.392;2023-02-10T08:57:26;102827.41;;;3.65;82.55
61478;BME280;47345;52.334;10.392;2023-02-10T08:59:59;102828.14;;;3.67;82.66
61478;BME280;47345;52.334;10.392;2023-02-10T09:02:30;102829.55;;;3.70;82.65
61478;BME280;47345;52.334;10.392;2023-02-10T09:05:02;102826.23;;;3.74;82.69
61478;BME280;47345;52.334;10.392;2023-02-10T09:07:39;102829.75;;;3.77;82.41
61478;BME280;47345;52.334;10.392;2023-02-10T09:10:13;102825.89;;;3.80;82.52
61478;BME280;47345;52.334;10.392;2023-02-10T09:12:45;102824.97;;;3.83;82.54
61478;BME280;47345;52.334;10.392;2023-02-10T09:15:18;102826.73;;;3.87;82.41
61478;BME280;47345;52.334;10.392;2023-02-10T09:17:51;102824.42;;;3.89;82.39
61478;BME280;47345;52.334;10.392;2023-02-10T09:20:23;102822.91;;;3.90;82.45
61478;BME280;47345;52.334;10.392;2023-02-10T09:22:54;102821.51;;;3.91;82.31
61478;BME280;47345;52.334;10.392;2023-02-10T09:25:25;102817.68;;;3.94;82.40
61478;BME280;47345;52.334;10.392;2023-02-10T09:27:56;102819.80;;;3.97;82.40
61478;BME280;47345;52.334;10.392;2023-02-10T09:30:28;102815.50;;;4.00;82.32
61478;BME280;47345;52.334;10.392;2023-02-10T09:33:00;102817.25;;;4.03;82.37
61478;BME280;47345;52.334;10.392;2023-02-10T09:35:33;102819.70;;;4.06;82.35
61478;BME280;47345;52.334;10.392;2023-02-10T09:38:05;102825.20;;;4.10;82.27
61478;BME280;47345;52.334;10.392;2023-02-10T09:40:50;102831.23;;;4.14;82.28
61478;BME280;47345;52.334;10.392;2023-02-10T09:43:37;102826.38;;;4.19;82.47
61478;BME280;47345;52.334;10.392;2023-02-10T09:46:20;102835.42;;;4.26;82.19
61478;BME280;47345;52.334;10.392;2023-02-10T09:49:09;102834.45;;;4.32;82.12
61478;BME280;47345;52.334;10.392;2023-02-10T09:51:55;102839.57;;;4.38;82.11
61478;BME280;47345;52.334;10.392;2023-02-10T09:54:31;102840.61;;;4.44;81.96
61478;BME280;47345;52.334;10.392;2023-02-10T09:57:05;102840.15;;;4.47;81.78
61478;BME280;47345;52.334;10.392;2023-02-10T09:59:40;102843.02;;;4.50;81.69
61478;BME280;47345;52.334;10.392;2023-02-10T10:02:18;102844.69;;;4.52;81.52
61478;BME280;47345;52.334;10.392;2023-02-10T10:04:55;102845.14;;;4.53;81.42
61478;BME280;47345;52.334;10.392;2023-02-10T10:07:30;102841.50;;;4.54;81.34
61478;BME280;47345;52.334;10.392;2023-02-10T10:10:13;102835.30;;;4.55;81.28
61478;BME280;47345;52.334;10.392;2023-02-10T10:12:46;102838.16;;;4.55;81.16
61478;BME280;47345;52.334;10.392;2023-02-10T10:15:19;102837.90;;;4.56;81.29
61478;BME280;47345;52.334;10.392;2023-02-10T10:18:03;102838.29;;;4.58;81.08
61478;BME280;47345;52.334;10.392;2023-02-10T10:20:48;102841.19;;;4.61;81.15
61478;BME280;47345;52.334;10.392;2023-02-10T10:23:35;102846.38;;;4.64;81.04
61478;BME280;47345;52.334;10.392;2023-02-10T10:26:19;102843.80;;;4.64;81.12
61478;BME280;47345;52.334;10.392;2023-02-10T10:29:18;102847.27;;;4.66;80.77
61478;BME280;47345;52.334;10.392;2023-02-10T10:31:57;102847.55;;;4.67;80.68
61478;BME280;47345;52.334;10.392;2023-02-10T10:34:30;102849.04;;;4.67;80.93
61478;BME280;47345;52.334;10.392;2023-02-10T10:37:12;102851.64;;;4.68;80.72
61478;BME280;47345;52.334;10.392;2023-02-10T10:39:47;102852.24;;;4.70;80.69
61478;BME280;47345;52.334;10.392;2023-02-10T10:42:25;102853.73;;;4.71;80.90
61478;BME280;47345;52.334;10.392;2023-02-10T10:45:02;102849.90;;;4.75;80.68
61478;BME280;47345;52.334;10.392;2023-02-10T10:47:43;102849.11;;;4.78;80.65
61478;BME280;47345;52.334;10.392;2023-02-10T10:50:20;102850.06;;;4.82;80.86
61478;BME280;47345;52.334;10.392;2023-02-10T10:52:55;102848.01;;;4.85;80.76
61478;BME280;47345;52.334;10.392;2023-02-10T10:55:30;102841.70;;;4.87;80.22
61478;BME280;47345;52.334;10.392;2023-02-10T10:58:10;102840.96;;;4.90;80.22
61478;BME280;47345;52.334;10.392;2023-02-10T11:00:52;102831.52;;;4.91;80.26
61478;BME280;47345;52.334;10.392;2023-02-10T11:03:25;102828.80;;;4.91;80.10
61478;BME280;47345;52.334;10.392;2023-02-10T11:06:01;102828.20;;;4.91;80.16
61478;BME280;47345;52.334;10.392;2023-02-10T11:08:38;102822.41;;;4.91;79.91
61478;BME280;47345;52.334;10.392;2023-02-10T11:11:14;102822.02;;;4.89;79.88
61478;BME280;47345;52.334;10.392;2023-02-10T11:14:14;102830.77;;;4.88;79.91
61478;BME280;47345;52.334;10.392;2023-02-10T11:16:48;102828.04;;;4.86;79.82
61478;BME280;47345;52.334;10.392;2023-02-10T11:19:22;102823.25;;;4.85;79.93
61478;BME280;47345;52.334;10.392;2023-02-10T11:21:54;102824.34;;;4.85;80.12
61478;BME280;47345;52.334;10.392;2023-02-10T11:24:28;102815.95;;;4.86;80.10
61478;BME280;47345;52.334;10.392;2023-02-10T11:27:03;102811.34;;;4.87;79.98
61478;BME280;47345;52.334;10.392;2023-02-10T11:29:45;102813.07;;;4.91;80.13
61478;BME280;47345;52.334;10.392;2023-02-10T11:32:26;102804.98;;;4.94;80.00
61478;BME280;47345;52.334;10.392;2023-02-10T11:35:00;102801.39;;;4.98;80.20
61478;BME280;47345;52.334;10.392;2023-02-10T11:37:36;102806.64;;;5.03;80.26
61478;BME280;47345;52.334;10.392;2023-02-10T11:40:19;102808.69;;;5.10;80.04
61478;BME280;47345;52.334;10.392;2023-02-10T11:42:52;102808.33;;;5.19;80.09
61478;BME280;47345;52.334;10.392;2023-02-10T11:45:27;102805.42;;;5.26;79.93
61478;BME280;47345;52.334;10.392;2023-02-10T11:50:42;102805.13;;;5.34;79.24
61478;BME280;47345;52.334;10.392;2023-02-10T11:53:23;102812.17;;;5.37;78.93
61478;BME280;47345;52.334;10.392;2023-02-10T11:55:59;102812.12;;;5.40;78.87
61478;BME280;47345;52.334;10.392;2023-02-10T11:59:00;102808.94;;;5.43;78.75
61478;BME280;47345;52.334;10.392;2023-02-10T12:01:53;102810.73;;;5.48;78.69
61478;BME280;47345;52.334;10.392;2023-02-10T12:04:41;102807.77;;;5.54;78.66
61478;BME280;47345;52.334;10.392;2023-02-10T12:07:23;102804.27;;;5.59;78.56
61478;BME280;47345;52.334;10.392;2023-02-10T12:09:58;102799.22;;;5.63;78.47
61478;BME280;47345;52.334;10.392;2023-02-10T12:12:39;102799.63;;;5.67;78.32
61478;BME280;47345;52.334;10.392;2023-02-10T12:15:23;102801.91;;;5.71;77.92
61478;BME280;47345;52.334;10.392;2023-02-10T12:18:09;102804.27;;;5.72;78.08
61478;BME280;47345;52.334;10.392;2023-02-10T12:21:09;102805.47;;;5.74;77.70
61478;BME280;47345;52.334;10.392;2023-02-10T12:23:54;102799.36;;;5.75;77.88
61478;BME280;47345;52.334;10.392;2023-02-10T12:26:32;102803.48;;;5.78;77.91
61478;BME280;47345;52.334;10.392;2023-02-10T12:29:18;102801.01;;;5.82;77.41
61478;BME280;47345;52.334;10.392;2023-02-10T12:32:01;102801.96;;;5.83;77.05
61478;BME280;47345;52.334;10.392;2023-02-10T12:37:50;102801.40;;;5.84;76.73
61478;BME280;47345;52.334;10.392;2023-02-10T12:40:40;102797.91;;;5.84;76.53
61478;BME280;47345;52.334;10.392;2023-02-10T12:43:30;102793.55;;;5.84;76.77
61478;BME280;47345;52.334;10.392;2023-02-10T12:46:14;102790.91;;;5.85;77.05
61478;BME280;47345;52.334;10.392;2023-02-10T12:48:55;102784.52;;;5.86;77.04
61478;BME280;47345;52.334;10.392;2023-02-10T12:51:40;102784.81;;;5.85;76.88
61478;BME280;47345;52.334;10.392;2023-02-10T12:54:23;102778.72;;;5.82;76.39
61478;BME280;47345;52.334;10.392;2023-02-10T12:57:16;102774.82;;;5.79;76.28
61478;BME280;47345;52.334;10.392;2023-02-10T12:59:56;102771.14;;;5.75;76.49
61478;BME280;47345;52.334;10.392;2023-02-10T13:02:36;102772.11;;;5.72;76.72
61478;BME280;47345;52.334;10.392;2023-02-10T13:05:14;102768.95;;;5.69;76.61
61478;BME280;47345;52.334;10.392;2023-02-10T13:07:50;102771.73;;;5.66;76.57
61478;BME280;47345;52.334;10.392;2023-02-10T13:10:29;102774.20;;;5.64;76.33
61478;BME280;47345;52.334;10.392;2023-02-10T13:13:05;102770.07;;;5.64;76.44
61478;BME280;47345;52.334;10.392;2023-02-10T13:15:40;102763.02;;;5.64;76.45
61478;BME280;47345;52.334;10.392;2023-02-10T13:18:20;102758.69;;;5.63;76.51
61478;BME280;47345;52.334;10.392;2023-02-10T13:20:58;102749.30;;;5.63;76.36
61478;BME280;47345;52.334;10.392;2023-02-10T13:23:31;102745.95;;;5.64;76.61
61478;BME280;47345;52.334;10.392;2023-02-10T13:26:22;102742.24;;;5.65;76.43
61478;BME280;47345;52.334;10.392;2023-02-10T13:29:07;102740.44;;;5.67;76.60
61478;BME280;47345;52.334;10.392;2023-02-10T13:31:51;102741.78;;;5.69;76.91
61478;BME280;47345;52.334;10.392;2023-02-10T13:34:29;102739.50;;;5.72;77.05
61478;BME280;47345;52.334;10.392;2023-02-10T13:37:05;102737.66;;;5.74;77.08
61478;BME280;47345;52.334;10.392;2023-02-10T13:39:38;102735.71;;;5.79;76.97
61478;BME280;47345;52.334;10.392;2023-02-10T13:42:21;102732.96;;;5.81;77.07
61478;BME280;47345;52.334;10.392;2023-02-10T13:45:01;102729.33;;;5.82;76.85